Flugplatz Linkenheim

Für EDRI sind keine METAR/TAF Berichte vorhanden.
Es werden die Flugwettermeldungen vom Flugplatz Mannheim-City in 37 km Entfernung angezeigt.

Bericht für EDFM

vom 31.05. um 10:20 UTC

Wind 4 kt aus 20°

Sichtweite 10 km oder mehr

gute Sicht, keine Wolken < 5000 ft, keine CB, keine Wettererscheinungen (CAVOK)

Temperatur 19.0°C

Taupunkt 4.0°C

Luftfeuchtigkeit 37%

Luftdruck 1021 hPa

EDFM 311020Z 02004KT 340V080 CAVOK 19/04 Q1021
Keine Prognose (TAF) verfügbar.
Impressum